createdAt,value
2019-03-12T00:02:46.788Z,58.27
2019-03-12T00:05:51.509Z,58.51
2019-03-12T00:08:55.932Z,58.45
2019-03-12T00:12:00.366Z,58.66
2019-03-12T00:15:07.139Z,58.86
2019-03-12T00:18:11.574Z,58.53
2019-03-12T00:21:16.007Z,58.97
2019-03-12T00:24:20.713Z,58.71
2019-03-12T00:27:25.153Z,58.27
2019-03-12T00:30:29.871Z,58.60
2019-03-12T00:33:34.307Z,58.91
2019-03-12T00:36:39.022Z,59.27
2019-03-12T00:39:43.456Z,59.54
2019-03-12T00:42:48.180Z,59.96
2019-03-12T00:45:52.910Z,60.09
2019-03-12T00:48:57.338Z,60.50
2019-03-12T00:52:01.774Z,60.55
2019-03-12T00:55:09.143Z,60.43
2019-03-12T00:58:13.886Z,60.71
2019-03-12T01:01:18.611Z,61.10
2019-03-12T01:04:23.345Z,60.91
2019-03-12T01:07:28.076Z,61.40
2019-03-12T01:10:32.803Z,61.86
2019-03-12T01:13:37.250Z,62.54
2019-03-12T01:16:41.688Z,62.67
2019-03-12T01:19:46.498Z,62.29
2019-03-12T01:22:50.938Z,62.58
2019-03-12T01:25:55.638Z,62.80
2019-03-12T01:29:00.367Z,63.36
2019-03-12T01:32:04.801Z,62.74
2019-03-12T01:35:09.829Z,61.95
2019-03-12T01:38:14.565Z,62.09
2019-03-12T01:41:18.992Z,62.04
2019-03-12T01:44:23.427Z,61.98
2019-03-12T01:47:28.248Z,61.95
2019-03-12T01:50:32.969Z,61.92
2019-03-12T01:53:37.414Z,61.87
2019-03-12T01:56:41.847Z,61.89
2019-03-12T01:59:46.299Z,61.82
2019-03-12T02:02:50.730Z,62.02
2019-03-12T02:05:55.194Z,62.14
2019-03-12T02:08:59.631Z,61.58
2019-03-12T02:12:04.067Z,61.54
2019-03-12T02:15:16.299Z,61.62
2019-03-12T02:18:20.976Z,61.02
2019-03-12T02:21:25.705Z,61.02
2019-03-12T02:24:30.445Z,61.18
2019-03-12T02:27:34.887Z,60.25
2019-03-12T02:30:39.595Z,60.81
2019-03-12T02:33:44.307Z,60.98
2019-03-12T02:36:48.779Z,60.84
2019-03-12T02:39:53.222Z,61.32
2019-03-12T02:42:57.656Z,61.68
2019-03-12T02:46:02.425Z,61.42
2019-03-12T02:49:09.574Z,61.46
2019-03-12T02:52:13.631Z,62.07
2019-03-12T02:55:18.125Z,61.67
2019-03-12T02:58:22.790Z,62.27
2019-03-12T03:01:27.212Z,62.07
2019-03-12T03:04:31.944Z,61.89
2019-03-12T03:07:47.810Z,62.19
2019-03-12T03:10:52.235Z,62.07
2019-03-12T03:13:56.989Z,61.69
2019-03-12T03:17:01.412Z,62.38
2019-03-12T03:20:07.793Z,63.30
2019-03-12T03:23:12.241Z,63.96
2019-03-12T03:26:16.673Z,63.94
2019-03-12T03:29:21.166Z,64.26
2019-03-12T03:32:25.890Z,64.08
2019-03-12T03:35:30.331Z,64.80
2019-03-12T03:38:34.769Z,64.98
2019-03-12T03:41:39.456Z,65.62
2019-03-12T03:44:43.907Z,66.32
2019-03-12T03:47:48.403Z,65.81
2019-03-12T03:50:53.148Z,65.87
2019-03-12T03:53:57.878Z,66.22
2019-03-12T03:57:02.302Z,65.54
2019-03-12T04:00:16.498Z,65.96
2019-03-12T04:03:21.283Z,66.15
2019-03-12T04:06:26.011Z,65.98
2019-03-12T04:09:30.748Z,66.30
2019-03-12T04:12:35.576Z,65.48
2019-03-12T04:15:40.304Z,65.95
2019-03-12T04:18:44.754Z,66.48
2019-03-12T04:21:49.461Z,66.67
2019-03-12T04:24:54.191Z,65.81
2019-03-12T04:27:58.924Z,66.40
2019-03-12T04:31:03.349Z,66.53
2019-03-12T04:34:12.548Z,67.32
2019-03-12T04:37:16.987Z,68.09
2019-03-12T04:40:21.423Z,68.97
2019-03-12T04:43:25.848Z,68.98
2019-03-12T04:46:30.286Z,68.77
2019-03-12T04:49:35.002Z,68.48
2019-03-12T04:52:39.483Z,68.31
2019-03-12T04:55:44.161Z,68.48
2019-03-12T04:58:48.886Z,68.66
2019-03-12T05:01:53.621Z,69.19
2019-03-12T05:04:58.056Z,70.04
2019-03-12T05:08:02.772Z,70.39
2019-03-12T05:11:07.221Z,70.37
2019-03-12T05:14:26.848Z,70.20
2019-03-12T05:17:31.614Z,70.43
2019-03-12T05:20:36.344Z,69.72
2019-03-12T05:23:41.072Z,69.07
2019-03-12T05:26:45.508Z,69.76
2019-03-12T05:29:49.929Z,69.95
2019-03-12T05:32:54.368Z,70.32
2019-03-12T05:35:59.104Z,71.71
2019-03-12T05:39:04.707Z,70.68
2019-03-12T05:42:09.143Z,70.30
2019-03-12T05:45:16.169Z,70.93
2019-03-12T05:48:20.862Z,70.90
2019-03-12T05:51:25.597Z,70.88
2019-03-12T05:54:30.323Z,70.73
2019-03-12T05:57:34.764Z,70.72
2019-03-12T06:00:39.199Z,71.23
2019-03-12T06:03:43.708Z,70.70
2019-03-12T06:06:48.141Z,70.30
2019-03-12T06:09:52.865Z,69.82
2019-03-12T06:12:57.586Z,69.78
2019-03-12T06:16:02.967Z,70.12
2019-03-12T06:19:07.665Z,69.81
2019-03-12T06:22:12.361Z,68.98
2019-03-12T06:25:17.243Z,68.39
2019-03-12T06:28:22.028Z,67.61
2019-03-12T06:31:34.260Z,64.82
2019-03-12T06:34:40.632Z,60.29
2019-03-12T06:38:05.007Z,54.70
2019-03-12T06:41:13.497Z,50.93
2019-03-12T06:44:35.888Z,48.91
2019-03-12T06:47:50.760Z,47.83
2019-03-12T06:50:59.523Z,46.98
2019-03-12T06:54:05.850Z,47.69
2019-03-12T06:57:14.582Z,48.20
2019-03-12T07:00:35.663Z,46.03
2019-03-12T07:03:57.780Z,42.04
2019-03-12T07:07:06.921Z,38.08
2019-03-12T07:10:13.434Z,34.91
2019-03-12T07:13:19.525Z,33.93
2019-03-12T07:16:28.620Z,32.52
2019-03-12T07:19:34.704Z,30.82
2019-03-12T07:22:41.061Z,32.85
2019-03-12T07:26:03.531Z,36.10
2019-03-12T07:29:27.720Z,38.16
2019-03-12T07:32:34.906Z,40.67
2019-03-12T07:35:41.252Z,42.96
2019-03-12T07:38:47.617Z,46.43
2019-03-12T07:41:56.444Z,47.76
2019-03-12T07:45:14.201Z,48.53
2019-03-12T07:48:35.298Z,50.44
2019-03-12T07:51:41.356Z,50.06
2019-03-12T07:54:47.433Z,50.77
2019-03-12T07:57:56.764Z,53.05
2019-03-12T08:01:03.726Z,52.87
2019-03-12T08:04:09.796Z,53.30
2019-03-12T08:07:15.883Z,52.80
2019-03-12T08:10:24.448Z,52.72
2019-03-12T08:13:49.184Z,52.07
2019-03-12T08:17:13.680Z,53.06
2019-03-12T08:20:20.059Z,52.55
2019-03-12T08:23:38.386Z,51.21
2019-03-12T08:26:50.173Z,51.18
2019-03-12T08:29:56.254Z,50.92
2019-03-12T08:33:07.920Z,51.01
2019-03-12T08:36:17.124Z,51.10
2019-03-12T08:39:23.207Z,50.78
2019-03-12T08:42:29.288Z,50.79
2019-03-12T08:45:35.681Z,50.44
2019-03-12T08:48:57.632Z,49.56
2019-03-12T08:52:03.984Z,48.67
2019-03-12T08:55:13.443Z,48.53
2019-03-12T08:58:19.798Z,47.82
2019-03-12T09:01:28.513Z,48.31
2019-03-12T09:04:34.589Z,47.05
2019-03-12T09:07:43.321Z,48.05
2019-03-12T09:10:52.243Z,46.52
2019-03-12T09:14:14.529Z,45.54
2019-03-12T09:17:20.948Z,45.39
2019-03-12T09:20:27.814Z,45.81
2019-03-12T09:23:32.014Z,44.38
2019-03-12T09:26:41.058Z,44.19
2019-03-12T09:29:50.131Z,42.65
2019-03-12T09:32:58.611Z,41.71
2019-03-12T09:36:21.062Z,41.61
2019-03-12T09:39:33.305Z,40.45
2019-03-12T09:42:46.343Z,41.00
2019-03-12T09:46:00.887Z,39.42
2019-03-12T09:49:12.870Z,40.51
2019-03-12T09:52:19.238Z,38.71
2019-03-12T09:55:25.316Z,37.93
2019-03-12T09:58:47.743Z,38.06
2019-03-12T10:02:08.878Z,37.81
2019-03-12T10:05:16.360Z,36.93
2019-03-12T10:08:39.327Z,36.65
2019-03-12T10:11:54.342Z,35.76
2019-03-12T10:15:06.397Z,34.38
2019-03-12T10:18:14.884Z,36.54
2019-03-12T10:21:37.005Z,34.97
2019-03-12T10:24:50.687Z,36.46
2019-03-12T10:27:54.895Z,34.94
2019-03-12T10:31:16.001Z,34.06
2019-03-12T10:34:29.649Z,33.54
2019-03-12T10:37:42.169Z,33.04
2019-03-12T10:40:53.722Z,33.55
2019-03-12T10:43:59.799Z,32.51
2019-03-12T10:47:05.879Z,33.17
2019-03-12T10:50:10.796Z,30.53
2019-03-12T10:53:15.233Z,31.33
2019-03-12T10:56:19.752Z,31.61
2019-03-12T10:59:24.528Z,32.67
2019-03-12T11:02:29.237Z,31.00
2019-03-12T11:05:45.431Z,31.41
2019-03-12T11:08:39.842Z,33.42
2019-03-12T11:11:44.559Z,31.10
2019-03-12T11:14:49.285Z,30.80
2019-03-12T11:17:53.732Z,28.50
2019-03-12T11:20:58.820Z,28.85
2019-03-12T11:24:03.560Z,29.52
2019-03-12T11:27:08.003Z,31.10
2019-03-12T11:30:20.301Z,30.56
2019-03-12T11:33:25.045Z,30.89
2019-03-12T11:36:29.777Z,32.21
2019-03-12T11:39:34.215Z,29.80
2019-03-12T11:42:38.933Z,30.54
2019-03-12T11:45:43.453Z,27.94
2019-03-12T11:48:47.884Z,27.78
2019-03-12T11:51:52.330Z,28.81
2019-03-12T11:54:57.049Z,30.06
2019-03-12T11:58:01.489Z,28.65
2019-03-12T12:01:08.685Z,27.78
2019-03-12T12:04:13.164Z,27.58
2019-03-12T12:07:18.040Z,27.83
2019-03-12T12:10:22.648Z,28.04
2019-03-12T12:13:27.098Z,27.24
2019-03-12T12:16:31.911Z,28.33
2019-03-12T12:19:36.339Z,25.28
2019-03-12T12:22:40.785Z,25.17
2019-03-12T12:25:45.574Z,26.00
2019-03-12T12:28:50.308Z,27.99
2019-03-12T12:31:55.029Z,28.10
2019-03-12T12:34:59.760Z,28.50
2019-03-12T12:38:04.490Z,26.57
2019-03-12T12:41:09.222Z,27.43
2019-03-12T12:44:13.665Z,27.08
2019-03-12T12:47:18.114Z,27.42
2019-03-12T12:50:22.646Z,26.51
2019-03-12T12:53:27.742Z,26.52
2019-03-12T12:56:32.467Z,25.21
2019-03-12T12:59:36.908Z,24.61
2019-03-12T13:02:41.355Z,24.60
2019-03-12T13:05:45.857Z,23.89
2019-03-12T13:08:50.305Z,24.47
2019-03-12T13:11:55.099Z,24.41
2019-03-12T13:14:59.825Z,25.45
2019-03-12T13:18:04.268Z,25.36
2019-03-12T13:21:08.705Z,23.34
2019-03-12T13:24:13.154Z,24.61
2019-03-12T13:27:17.616Z,25.23
2019-03-12T13:30:26.838Z,25.41
2019-03-12T13:33:31.292Z,25.85
2019-03-12T13:36:36.013Z,26.36
2019-03-12T13:39:40.471Z,26.34
2019-03-12T13:42:44.985Z,27.25
2019-03-12T13:45:49.561Z,27.31
2019-03-12T13:48:54.348Z,27.81
2019-03-12T13:51:59.057Z,27.84
2019-03-12T13:55:03.982Z,28.44
2019-03-12T13:58:08.421Z,29.10
2019-03-12T14:01:13.146Z,28.77
2019-03-12T14:04:17.876Z,28.07
2019-03-12T14:07:22.315Z,27.67
2019-03-12T14:10:28.121Z,27.72
2019-03-12T14:13:32.573Z,26.69
2019-03-12T14:16:37.009Z,26.61
2019-03-12T14:19:41.736Z,27.45
2019-03-12T14:22:46.181Z,26.99
2019-03-12T14:25:51.349Z,27.89
2019-03-12T14:28:56.136Z,27.62
2019-03-12T14:32:00.574Z,28.16
2019-03-12T14:35:06.351Z,28.91
2019-03-12T14:38:11.548Z,28.73
2019-03-12T14:41:16.058Z,29.83
2019-03-12T14:44:20.508Z,29.35
2019-03-12T14:47:25.229Z,29.75
2019-03-12T14:50:32.090Z,29.81
2019-03-12T14:53:36.867Z,29.76
2019-03-12T14:56:41.453Z,31.86
2019-03-12T14:59:46.203Z,30.16
2019-03-12T15:02:50.934Z,29.03
2019-03-12T15:05:55.370Z,29.66
2019-03-12T15:09:00.192Z,29.91
2019-03-12T15:12:04.637Z,30.55
2019-03-12T15:15:11.792Z,30.21
2019-03-12T15:18:16.535Z,30.89
2019-03-12T15:21:20.977Z,31.57
2019-03-12T15:24:25.415Z,31.91
2019-03-12T15:27:30.115Z,29.97
2019-03-12T15:30:34.946Z,29.37
2019-03-12T15:33:39.672Z,30.89
2019-03-12T15:36:45.463Z,29.87
2019-03-12T15:39:50.134Z,30.60
2019-03-12T15:42:54.973Z,30.05
2019-03-12T15:45:59.389Z,31.40
2019-03-12T15:49:03.838Z,31.56
2019-03-12T15:52:08.286Z,31.24
2019-03-12T15:55:13.718Z,31.31
2019-03-12T15:58:18.451Z,31.38
2019-03-12T16:01:23.178Z,31.30
2019-03-12T16:04:27.901Z,31.49
2019-03-12T16:07:32.741Z,31.02
2019-03-12T16:10:37.669Z,31.19
2019-03-12T16:13:42.504Z,30.19
2019-03-12T16:16:47.233Z,30.65
2019-03-12T16:19:52.073Z,30.43
2019-03-12T16:22:56.507Z,30.00
2019-03-12T16:26:00.952Z,30.15
2019-03-12T16:29:05.751Z,30.75
2019-03-12T16:32:10.483Z,31.49
2019-03-12T16:35:15.316Z,31.58
2019-03-12T16:38:20.041Z,31.25
2019-03-12T16:41:24.776Z,31.61
2019-03-12T16:44:29.507Z,31.33
2019-03-12T16:47:34.243Z,32.51
2019-03-12T16:50:38.970Z,32.12
2019-03-12T16:53:43.670Z,32.11
2019-03-12T16:56:48.119Z,32.40
2019-03-12T16:59:52.558Z,32.58
2019-03-12T17:02:56.998Z,32.71
2019-03-12T17:06:01.438Z,33.09
2019-03-12T17:09:07.887Z,33.68
2019-03-12T17:12:12.869Z,33.21
2019-03-12T17:15:23.476Z,32.71
2019-03-12T17:18:28.202Z,32.95
2019-03-12T17:21:32.966Z,33.28
2019-03-12T17:24:37.776Z,33.08
2019-03-12T17:27:42.503Z,33.35
2019-03-12T17:30:46.950Z,32.74
2019-03-12T17:33:51.386Z,33.18
2019-03-12T17:36:56.176Z,33.21
2019-03-12T17:40:00.917Z,33.15
2019-03-12T17:43:05.739Z,33.59
2019-03-12T17:46:10.469Z,33.57
2019-03-12T17:49:15.200Z,33.39
2019-03-12T17:52:19.933Z,33.34
2019-03-12T17:55:24.663Z,33.69
2019-03-12T17:58:29.396Z,33.56
2019-03-12T18:01:34.119Z,33.40
2019-03-12T18:04:38.854Z,33.99
2019-03-12T18:07:43.531Z,33.49
2019-03-12T18:10:47.963Z,33.59
2019-03-12T18:13:52.397Z,33.79
2019-03-12T18:16:57.180Z,33.47
2019-03-12T18:20:01.889Z,33.71
2019-03-12T18:23:06.327Z,33.76
2019-03-12T18:26:11.132Z,33.91
2019-03-12T18:29:15.561Z,33.87
2019-03-12T18:32:20.313Z,34.54
2019-03-12T18:35:24.726Z,33.79
2019-03-12T18:38:29.459Z,33.93
2019-03-12T18:41:34.185Z,34.55
2019-03-12T18:44:38.918Z,33.71
2019-03-12T18:47:43.667Z,34.49
2019-03-12T18:50:48.077Z,33.87
2019-03-12T18:53:52.509Z,33.97
2019-03-12T18:56:57.226Z,34.34
2019-03-12T19:00:01.959Z,34.46
2019-03-12T19:03:06.795Z,33.70
2019-03-12T19:06:11.530Z,33.22
2019-03-12T19:09:16.250Z,33.39
2019-03-12T19:12:20.980Z,33.18
2019-03-12T19:15:25.404Z,33.24
2019-03-12T19:18:30.137Z,33.27
2019-03-12T19:21:34.582Z,33.09
2019-03-12T19:24:39.290Z,33.01
2019-03-12T19:27:44.019Z,33.13
2019-03-12T19:30:49.775Z,33.11
2019-03-12T19:33:54.914Z,32.79
2019-03-12T19:36:59.651Z,32.85
2019-03-12T19:40:09.958Z,32.72
2019-03-12T19:43:14.741Z,33.21
2019-03-12T19:46:19.173Z,33.24
2019-03-12T19:49:23.666Z,33.28
2019-03-12T19:52:28.419Z,33.24
2019-03-12T19:55:58.169Z,33.53
2019-03-12T19:59:02.874Z,33.56
2019-03-12T20:02:15.892Z,33.72
2019-03-12T20:05:14.688Z,33.48
2019-03-12T20:08:19.442Z,33.56
2019-03-12T20:11:49.242Z,34.29
2019-03-12T20:15:24.175Z,33.88
2019-03-12T20:18:47.745Z,33.58
2019-03-12T20:22:27.083Z,33.64
2019-03-12T20:26:15.297Z,34.23
2019-03-12T20:29:48.652Z,33.67
2019-03-12T20:33:27.471Z,34.17
2019-03-12T20:37:06.193Z,33.45
2019-03-12T20:40:55.062Z,33.53
2019-03-12T20:44:10.230Z,33.95
2019-03-12T20:48:09.565Z,33.26
2019-03-12T20:51:57.082Z,33.61
2019-03-12T20:55:43.985Z,34.86
2019-03-12T20:59:15.759Z,33.30
2019-03-12T21:02:55.387Z,33.79
2019-03-12T21:06:16.250Z,34.28
2019-03-12T21:10:01.791Z,33.73
2019-03-12T21:14:02.721Z,33.35
2019-03-12T21:18:01.840Z,33.63
2019-03-12T21:22:04.109Z,33.25
2019-03-12T21:25:23.412Z,32.95
2019-03-12T21:28:35.232Z,34.16
2019-03-12T21:31:39.660Z,32.87
2019-03-12T21:34:44.171Z,32.47
2019-03-12T21:37:48.675Z,32.80
2019-03-12T21:40:53.113Z,33.01
2019-03-12T21:43:57.944Z,33.95
2019-03-12T21:47:02.366Z,32.62
2019-03-12T21:50:10.011Z,34.39
2019-03-12T21:53:14.457Z,33.13
2019-03-12T21:56:18.883Z,35.24
2019-03-12T21:59:23.319Z,32.75
2019-03-12T22:02:27.774Z,33.11
2019-03-12T22:05:32.200Z,32.78
2019-03-12T22:08:36.632Z,34.33
2019-03-12T22:11:41.375Z,32.44
2019-03-12T22:14:45.827Z,32.18
2019-03-12T22:17:50.600Z,32.40
2019-03-12T22:20:55.968Z,32.45
2019-03-12T22:24:02.040Z,32.42
2019-03-12T22:27:06.742Z,32.38
2019-03-12T22:30:21.584Z,32.55
2019-03-12T22:33:26.340Z,32.35
2019-03-12T22:36:31.069Z,32.16
2019-03-12T22:39:35.513Z,31.96
2019-03-12T22:42:40.223Z,31.81
2019-03-12T22:45:44.670Z,31.89
2019-03-12T22:48:49.107Z,31.44
2019-03-12T22:51:53.802Z,31.26
2019-03-12T22:54:58.530Z,31.49
2019-03-12T22:58:03.262Z,31.91
2019-03-12T23:01:08.199Z,32.21
2019-03-12T23:04:12.644Z,32.09
2019-03-12T23:07:17.234Z,33.03
2019-03-12T23:10:21.894Z,33.24
2019-03-12T23:13:26.713Z,33.63
2019-03-12T23:16:31.447Z,33.97
2019-03-12T23:19:35.961Z,34.17
2019-03-12T23:22:40.695Z,34.67
2019-03-12T23:25:46.242Z,34.91
2019-03-12T23:28:50.976Z,36.78
2019-03-12T23:31:55.574Z,39.32
2019-03-12T23:35:00.018Z,41.55
2019-03-12T23:38:04.459Z,42.98
2019-03-12T23:41:09.190Z,43.76
2019-03-12T23:44:13.696Z,44.86
2019-03-12T23:47:18.544Z,47.29
2019-03-12T23:50:23.989Z,50.16
2019-03-12T23:53:28.719Z,51.60
2019-03-12T23:56:33.453Z,52.30
2019-03-12T23:59:38.594Z,53.50
